Time;durP1;ratioP1;P1;durP2;ratioP2;P2;SDS_P1;SDS_P2;PMS_P1;PMS_P2;Temp;Humidity;BMP_temperature;BMP_pressure;BME280_temperature;BME280_humidity;BME280_pressure;Samples;Min_cycle;Max_cycle;Signal;HPM_P1;HPM_P2
2024/02/28 00:02:53;;;;;;;3.47;2.33;;;;;;;8.33;100.00;97449.72;6304188;28;20735;-52
2024/02/28 00:05:55;;;;;;;5.63;2.60;;;;;;;8.44;100.00;97455.03;6287684;28;20205;-53
2024/02/28 00:08:57;;;;;;;7.20;2.43;;;;;;;8.43;100.00;97450.75;6308566;28;20187;-51
2024/02/28 00:11:59;;;;;;;7.07;2.60;;;;;;;8.43;100.00;97445.44;6293899;28;20670;-50
2024/02/28 00:15:02;;;;;;;6.63;2.50;;;;;;;8.35;100.00;97442.31;6313660;28;20205;-52
2024/02/28 00:18:04;;;;;;;6.70;2.87;;;;;;;8.41;100.00;97465.28;6292989;28;20204;-52
2024/02/28 00:21:06;;;;;;;8.70;2.73;;;;;;;8.37;100.00;97453.50;6310022;28;20236;-52
2024/02/28 00:24:08;;;;;;;3.37;2.40;;;;;;;8.28;100.00;97447.75;6286874;28;20237;-51
2024/02/28 00:27:11;;;;;;;4.03;2.43;;;;;;;8.29;100.00;97452.00;6311527;28;20278;-49
2024/02/28 00:30:13;;;;;;;3.43;2.43;;;;;;;8.24;100.00;97458.00;6301024;28;20206;-53
2024/02/28 00:33:16;;;;;;;6.10;2.97;;;;;;;8.34;100.00;97460.09;6309460;28;20190;-53
2024/02/28 00:36:18;;;;;;;3.63;2.20;;;;;;;8.32;100.00;97453.38;6311527;28;20595;-51
2024/02/28 00:39:20;;;;;;;4.63;2.70;;;;;;;8.34;100.00;97448.66;6309393;28;20277;-53
2024/02/28 00:42:23;;;;;;;5.77;2.73;;;;;;;8.58;100.00;97457.44;6282340;28;20712;-49
2024/02/28 00:45:25;;;;;;;6.67;2.30;;;;;;;8.36;100.00;97459.84;6311991;28;20206;-52
2024/02/28 00:48:27;;;;;;;3.03;2.00;;;;;;;8.35;100.00;97455.56;6302561;28;20773;-53
2024/02/28 00:51:29;;;;;;;5.07;2.50;;;;;;;8.46;100.00;97457.44;6282568;28;20267;-51
2024/02/28 00:54:32;;;;;;;7.90;2.30;;;;;;;8.33;100.00;97457.66;6309611;28;20662;-52
2024/02/28 00:57:34;;;;;;;5.07;2.30;;;;;;;8.25;100.00;97461.47;6309093;28;20228;-48
2024/02/28 01:00:36;;;;;;;3.30;2.33;;;;;;;8.19;100.00;97455.25;6308156;28;20202;-54
2024/02/28 01:03:39;;;;;;;3.33;2.47;;;;;;;8.25;100.00;97464.13;6311820;28;20586;-48
2024/02/28 01:06:41;;;;;;;5.37;2.17;;;;;;;8.23;100.00;97464.38;6313435;28;20322;-52
2024/02/28 01:09:44;;;;;;;4.67;2.23;;;;;;;8.21;100.00;97460.31;6316139;28;20212;-52
2024/02/28 01:12:46;;;;;;;6.30;2.37;;;;;;;8.18;100.00;97472.22;6316001;28;20199;-51
2024/02/28 01:15:48;;;;;;;4.07;2.30;;;;;;;8.05;100.00;97458.38;6292584;28;20209;-51
2024/02/28 01:18:51;;;;;;;6.57;2.63;;;;;;;8.13;100.00;97466.78;6316349;28;20191;-51
2024/02/28 01:21:54;;;;;;;4.17;2.50;;;;;;;8.13;100.00;97481.91;6304039;28;20200;-50
2024/02/28 01:24:56;;;;;;;6.57;2.13;;;;;;;8.09;100.00;97478.09;6309720;28;20238;-53
2024/02/28 01:27:58;;;;;;;4.37;1.63;;;;;;;8.22;100.00;97476.00;6308662;28;20201;-53
2024/02/28 01:31:01;;;;;;;5.17;2.37;;;;;;;7.69;100.00;97402.66;6304343;28;20201;-54
2024/02/28 01:34:03;;;;;;;2.83;1.60;;;;;;;8.49;100.00;97472.91;6302275;28;20202;-48
2024/02/28 01:37:05;;;;;;;3.10;1.90;;;;;;;8.22;100.00;97475.19;6306275;28;20202;-50
2024/02/28 01:40:08;;;;;;;5.17;1.70;;;;;;;8.04;100.00;97477.97;6315365;28;20187;-51
2024/02/28 01:43:11;;;;;;;5.47;2.30;;;;;;;7.95;100.00;97475.66;6306863;28;20241;-52
2024/02/28 01:46:25;;;;;;;9.37;2.10;;;;;;;8.02;100.00;97475.53;6315856;28;20206;-51
2024/02/28 01:49:27;;;;;;;3.00;2.00;;;;;;;8.20;100.00;97475.44;6302672;28;20191;-49
2024/02/28 01:52:30;;;;;;;5.87;2.23;;;;;;;8.16;100.00;97465.50;6289300;28;20663;-49
2024/02/28 01:55:32;;;;;;;7.03;2.30;;;;;;;8.06;100.00;97467.94;6308447;28;20189;-52
2024/02/28 01:58:34;;;;;;;6.03;1.83;;;;;;;8.41;100.00;97466.09;6303219;28;20297;-51
2024/02/28 02:01:37;;;;;;;9.20;2.30;;;;;;;7.90;100.00;97466.78;6300923;28;20214;-51
2024/02/28 02:04:39;;;;;;;2.27;1.70;;;;;;;8.21;100.00;97468.28;6311819;28;20206;-52
2024/02/28 02:07:42;;;;;;;4.67;1.80;;;;;;;8.15;100.00;97464.69;6311026;28;20196;-50
2024/02/28 02:10:45;;;;;;;6.70;2.07;;;;;;;7.84;100.00;97468.50;6298859;28;20328;-47
2024/02/28 02:13:51;;;;;;;3.50;1.80;;;;;;;7.80;100.00;97477.97;6306348;28;20199;-51
2024/02/28 02:16:53;;;;;;;5.67;1.97;;;;;;;7.77;100.00;97475.75;6304256;28;20653;-50
2024/02/28 02:19:55;;;;;;;5.90;2.37;;;;;;;7.79;100.00;97475.53;6287257;28;20228;-52
2024/02/28 02:22:58;;;;;;;5.63;1.93;;;;;;;7.75;100.00;97433.56;6308340;28;20204;-50
2024/02/28 02:26:00;;;;;;;9.83;2.30;;;;;;;7.74;100.00;97460.31;6308926;28;20200;-51
2024/02/28 02:29:02;;;;;;;5.60;1.97;;;;;;;7.74;100.00;97474.38;6312917;28;20197;-48
2024/02/28 02:32:04;;;;;;;4.43;2.40;;;;;;;7.69;100.00;97476.09;6301910;28;20205;-53
2024/02/28 02:35:07;;;;;;;5.60;2.53;;;;;;;7.65;100.00;97481.03;6291249;28;20186;-51
2024/02/28 02:38:09;;;;;;;4.10;2.30;;;;;;;7.68;100.00;97479.75;6306329;28;20300;-52
2024/02/28 02:41:11;;;;;;;7.60;2.77;;;;;;;7.70;100.00;97478.50;6312040;28;20244;-53
2024/02/28 02:44:13;;;;;;;6.03;2.47;;;;;;;7.89;100.00;97489.03;6301774;28;20214;-52
2024/02/28 02:47:15;;;;;;;7.20;3.33;;;;;;;7.84;100.00;97483.63;6304776;28;20242;-50
2024/02/28 02:50:18;;;;;;;26.10;16.70;;;;;;;7.77;100.00;97483.69;6306155;28;20198;-50
2024/02/28 02:53:21;;;;;;;15.73;8.00;;;;;;;8.04;100.00;97483.28;6305385;28;20225;-51
2024/02/28 02:56:23;;;;;;;14.93;6.53;;;;;;;7.76;100.00;97487.41;6310334;28;20195;-50
2024/02/28 02:59:25;;;;;;;12.27;7.57;;;;;;;7.70;100.00;97488.31;6304609;28;20217;-52
2024/02/28 03:02:27;;;;;;;9.67;4.83;;;;;;;7.70;100.00;97490.97;6301845;28;20186;-50
2024/02/28 03:05:29;;;;;;;9.97;3.73;;;;;;;8.04;100.00;97492.06;6276386;28;20920;-51
2024/02/28 03:08:31;;;;;;;7.70;4.93;;;;;;;7.63;100.00;97492.91;6301455;28;20198;-50
2024/02/28 03:11:36;;;;;;;11.13;4.90;;;;;;;7.58;100.00;97484.81;6304942;28;20192;-50
2024/02/28 03:14:38;;;;;;;5.90;3.67;;;;;;;7.68;100.00;97496.47;6304860;28;20285;-52
2024/02/28 03:17:41;;;;;;;7.63;3.40;;;;;;;7.93;100.00;97501.63;6304675;28;20213;-50
2024/02/28 03:20:44;;;;;;;8.07;2.60;;;;;;;7.88;100.00;97509.44;6307502;28;20194;-52
2024/02/28 03:23:46;;;;;;;6.80;2.70;;;;;;;7.83;100.00;97508.50;6298671;28;20754;-52
2024/02/28 03:26:48;;;;;;;8.90;2.87;;;;;;;7.75;100.00;97515.75;6278791;28;20714;-51
2024/02/28 03:29:50;;;;;;;4.27;2.43;;;;;;;7.92;100.00;97507.94;6310977;28;20599;-48
2024/02/28 03:32:52;;;;;;;4.97;2.10;;;;;;;7.76;100.00;97508.59;6303470;28;20194;-51
2024/02/28 03:35:54;;;;;;;13.40;2.50;;;;;;;7.59;100.00;97497.88;6310176;28;20182;-50
2024/02/28 03:38:56;;;;;;;5.47;2.20;;;;;;;7.78;100.00;97525.09;6307417;28;20556;-49
2024/02/28 03:41:59;;;;;;;3.13;1.90;;;;;;;7.84;100.00;97532.16;6287361;28;20222;-50
2024/02/28 03:45:01;;;;;;;7.47;2.00;;;;;;;7.72;100.00;97531.31;6303302;28;20251;-50
2024/02/28 03:48:03;;;;;;;5.83;3.80;;;;;;;7.83;100.00;97529.72;6304044;28;20197;-50
2024/02/28 03:51:06;;;;;;;4.37;1.80;;;;;;;7.88;100.00;97512.09;6301816;28;20199;-51
2024/02/28 03:54:08;;;;;;;4.50;1.80;;;;;;;7.74;100.00;97548.63;6303187;28;20202;-50
2024/02/28 03:57:11;;;;;;;11.17;5.30;;;;;;;7.83;100.00;97535.00;6303441;28;20193;-50
2024/02/28 04:00:14;;;;;;;12.17;5.80;;;;;;;8.07;100.00;97549.94;6304513;28;20194;-49
2024/02/28 04:03:16;;;;;;;13.20;6.03;;;;;;;8.02;100.00;97563.88;6309741;28;20713;-50
2024/02/28 04:06:19;;;;;;;7.30;4.03;;;;;;;8.06;100.00;97568.75;6299350;28;20211;-50
2024/02/28 04:09:21;;;;;;;11.77;6.03;;;;;;;7.98;100.00;97562.75;6307703;28;20201;-52
2024/02/28 04:12:23;;;;;;;8.80;6.20;;;;;;;7.88;100.00;97556.34;6305981;28;20202;-50
2024/02/28 04:15:26;;;;;;;9.50;4.90;;;;;;;7.90;100.00;97551.66;6290167;28;20193;-51
2024/02/28 04:18:30;;;;;;;12.17;7.70;;;;;;;7.93;100.00;97562.63;6310241;28;20199;-50
2024/02/28 04:21:32;;;;;;;8.50;6.17;;;;;;;7.99;100.00;97580.28;6310122;28;20722;-50
2024/02/28 04:24:34;;;;;;;12.10;8.13;;;;;;;8.10;100.00;97575.22;6309404;28;20562;-51
2024/02/28 04:27:38;;;;;;;13.43;8.60;;;;;;;8.13;99.23;97572.94;6299637;28;20203;-50
2024/02/28 04:30:40;;;;;;;10.27;7.50;;;;;;;7.91;100.00;97582.44;6312265;28;20565;-52
2024/02/28 04:33:42;;;;;;;11.53;8.80;;;;;;;7.87;100.00;97579.41;6306343;28;20550;-52
2024/02/28 04:36:44;;;;;;;13.47;9.83;;;;;;;7.85;98.79;97570.91;6304653;28;20694;-52
2024/02/28 04:39:47;;;;;;;14.73;10.07;;;;;;;8.04;97.75;97584.91;6302640;28;20198;-50
2024/02/28 04:42:49;;;;;;;16.43;9.47;;;;;;;7.82;99.41;97589.91;6301770;28;20643;-51
2024/02/28 04:45:51;;;;;;;12.37;9.00;;;;;;;7.83;100.00;97588.88;6300813;28;20198;-50
2024/02/28 04:48:53;;;;;;;15.07;9.73;;;;;;;7.82;100.00;97589.09;6308792;28;20225;-49
2024/02/28 04:51:55;;;;;;;13.93;10.60;;;;;;;7.56;100.00;97587.63;6282476;28;20190;-51
2024/02/28 04:54:58;;;;;;;13.47;9.83;;;;;;;7.48;100.00;97567.53;6303765;28;20195;-52
2024/02/28 04:58:00;;;;;;;15.13;11.40;;;;;;;7.41;100.00;97590.69;6312233;28;20205;-50
2024/02/28 05:01:03;;;;;;;14.23;10.97;;;;;;;7.54;100.00;97608.22;6309507;28;20420;-47
2024/02/28 05:04:06;;;;;;;16.00;11.63;;;;;;;7.42;100.00;97598.41;6282390;28;20214;-52
2024/02/28 05:07:09;;;;;;;17.67;11.73;;;;;;;7.31;100.00;97595.69;6302050;28;20190;-50
2024/02/28 05:10:11;;;;;;;13.67;11.27;;;;;;;7.52;100.00;97610.31;6301228;28;20621;-50
2024/02/28 05:13:13;;;;;;;13.93;9.97;;;;;;;7.34;100.00;97621.72;6308143;28;20201;-50
2024/02/28 05:16:16;;;;;;;14.73;10.07;;;;;;;7.06;100.00;97601.88;6306912;28;20190;-50
2024/02/28 05:19:18;;;;;;;14.17;10.87;;;;;;;7.10;100.00;97616.31;6301468;28;20196;-52
2024/02/28 05:22:21;;;;;;;14.47;10.00;;;;;;;6.98;100.00;97636.59;6304184;28;20731;-51
2024/02/28 05:25:23;;;;;;;17.27;11.27;;;;;;;7.01;100.00;97630.88;6301972;28;20682;-50
2024/02/28 05:28:25;;;;;;;16.90;10.60;;;;;;;6.83;100.00;97630.84;6306750;28;20219;-51
2024/02/28 05:31:28;;;;;;;15.93;10.17;;;;;;;6.75;100.00;97626.66;6310682;28;20202;-50
2024/02/28 05:34:30;;;;;;;13.77;10.67;;;;;;;6.69;100.00;97638.09;6302929;28;20708;-49
2024/02/28 05:37:32;;;;;;;15.77;11.70;;;;;;;6.67;100.00;97627.75;6310093;28;20196;-51
2024/02/28 05:40:34;;;;;;;13.87;11.13;;;;;;;6.60;100.00;97639.41;6303981;28;20271;-51
2024/02/28 05:43:38;;;;;;;13.57;10.10;;;;;;;6.58;100.00;97647.56;6297876;28;20865;-50
2024/02/28 05:46:40;;;;;;;20.43;13.13;;;;;;;6.74;100.00;97651.50;6299036;28;20576;-51
2024/02/28 05:49:42;;;;;;;13.37;10.63;;;;;;;6.78;100.00;97654.53;6310109;28;20342;-53
2024/02/28 05:52:44;;;;;;;14.83;10.50;;;;;;;6.49;100.00;97645.41;6298579;28;20201;-51
2024/02/28 05:55:46;;;;;;;14.87;9.70;;;;;;;6.41;100.00;97678.25;6305242;28;20297;-51
2024/02/28 05:58:49;;;;;;;14.37;10.27;;;;;;;6.25;100.00;97681.41;6290468;28;20734;-52
2024/02/28 06:01:51;;;;;;;15.83;11.37;;;;;;;6.06;100.00;97676.06;6307354;28;20200;-50
2024/02/28 06:04:53;;;;;;;15.87;11.33;;;;;;;6.14;100.00;97675.78;6306226;28;20214;-52
2024/02/28 06:07:55;;;;;;;21.00;14.70;;;;;;;6.26;100.00;97673.28;6303770;28;20194;-51
2024/02/28 06:10:57;;;;;;;20.70;14.87;;;;;;;6.28;100.00;97676.50;6314215;28;20208;-49
2024/02/28 06:14:00;;;;;;;21.70;15.33;;;;;;;6.51;100.00;97681.22;6316806;28;20809;-50
2024/02/28 06:17:02;;;;;;;19.17;13.57;;;;;;;6.54;100.00;97696.66;6292347;28;20201;-49
2024/02/28 06:20:04;;;;;;;14.07;10.77;;;;;;;6.51;100.00;97702.41;6295646;28;20614;-51
2024/02/28 06:23:06;;;;;;;21.40;15.47;;;;;;;6.62;100.00;97699.06;6298969;28;20194;-48
2024/02/28 06:26:17;;;;;;;13.33;9.17;;;;;;;6.52;100.00;97716.44;6291525;28;20204;-52
2024/02/28 06:29:21;;;;;;;14.20;9.27;;;;;;;6.45;100.00;97719.13;6306683;28;20277;-52
2024/02/28 06:32:24;;;;;;;13.97;10.03;;;;;;;6.34;100.00;97711.88;6303229;28;20582;-51
2024/02/28 06:35:27;;;;;;;22.53;13.87;;;;;;;6.34;100.00;97714.53;6306309;28;20186;-50
2024/02/28 06:38:29;;;;;;;17.43;12.83;;;;;;;6.60;100.00;97730.22;6313190;28;20192;-50
2024/02/28 06:41:31;;;;;;;16.60;12.40;;;;;;;6.55;100.00;97739.81;6301875;28;20228;-52
2024/02/28 06:44:33;;;;;;;22.73;16.43;;;;;;;6.66;100.00;97741.78;6300682;28;20710;-52
2024/02/28 06:47:36;;;;;;;20.47;16.00;;;;;;;6.98;96.82;97742.53;6313825;28;20203;-52
2024/02/28 06:50:39;;;;;;;20.73;15.57;;;;;;;7.08;95.75;97748.16;6312228;28;20281;-49
2024/02/28 06:53:41;;;;;;;19.33;14.60;;;;;;;7.07;96.20;97764.28;6307006;28;20194;-52
2024/02/28 06:56:44;;;;;;;20.47;15.27;;;;;;;7.11;96.14;97757.53;6304827;28;20244;-53
2024/02/28 06:59:47;;;;;;;19.60;14.17;;;;;;;7.12;96.07;97775.84;6304332;28;20226;-51
2024/02/28 07:02:49;;;;;;;12.63;9.80;;;;;;;7.02;100.00;97772.88;6310229;28;20280;-50
2024/02/28 07:05:53;;;;;;;13.03;10.37;;;;;;;6.95;100.00;97778.22;6302535;28;20288;-52
2024/02/28 07:08:55;;;;;;;18.47;13.07;;;;;;;6.86;100.00;97773.41;6315590;28;20281;-50
2024/02/28 07:11:57;;;;;;;25.00;17.33;;;;;;;7.09;95.98;97773.59;6302084;28;20210;-49
2024/02/28 07:14:59;;;;;;;21.07;15.77;;;;;;;7.35;91.95;97774.44;6301203;28;20289;-53
2024/02/28 07:18:01;;;;;;;22.30;16.03;;;;;;;7.38;91.39;97781.91;6299116;28;20280;-52
2024/02/28 07:21:06;;;;;;;25.13;17.07;;;;;;;7.35;91.65;97785.84;6304838;28;20255;-50
2024/02/28 07:24:08;;;;;;;22.87;16.40;;;;;;;7.38;89.27;97788.03;6318776;28;20206;-49
2024/02/28 07:27:10;;;;;;;24.90;16.97;;;;;;;7.42;89.46;97791.88;6295863;28;20571;-52
2024/02/28 07:30:13;;;;;;;24.60;16.90;;;;;;;7.43;91.15;97795.31;6303092;28;20580;-49
2024/02/28 07:33:15;;;;;;;24.23;16.77;;;;;;;7.48;90.00;97790.97;6299999;28;20194;-52
2024/02/28 07:36:17;;;;;;;23.30;16.27;;;;;;;7.46;89.77;97805.50;6314881;28;20334;-53
2024/02/28 07:39:20;;;;;;;22.90;16.43;;;;;;;7.61;87.79;97797.19;6291157;28;20228;-50
2024/02/28 07:42:23;;;;;;;26.57;17.50;;;;;;;7.57;88.45;97799.47;6305906;28;20999;-53
2024/02/28 07:45:25;;;;;;;24.00;16.63;;;;;;;7.60;88.40;97806.19;6309641;28;20299;-53
2024/02/28 07:48:27;;;;;;;24.27;16.80;;;;;;;7.85;86.48;97809.59;6304018;28;20505;-50
2024/02/28 07:51:29;;;;;;;24.40;17.13;;;;;;;7.65;88.03;97798.38;6304413;28;20194;-50
2024/02/28 07:54:31;;;;;;;22.40;16.43;;;;;;;7.80;88.84;97827.19;6303427;28;20199;-52
2024/02/28 07:57:33;;;;;;;23.57;17.27;;;;;;;7.80;86.99;97816.59;6307017;28;20213;-51
2024/02/28 08:00:35;;;;;;;24.43;16.27;;;;;;;8.12;84.48;97804.78;6311317;28;20319;-52
2024/02/28 08:03:38;;;;;;;21.83;16.60;;;;;;;8.00;86.69;97815.34;6314545;28;20357;-52
2024/02/28 08:06:40;;;;;;;22.37;16.33;;;;;;;8.27;83.84;97842.38;6300785;28;20584;-47
2024/02/28 08:09:43;;;;;;;21.90;16.67;;;;;;;8.17;84.93;97822.69;6308320;28;20566;-52
2024/02/28 08:12:45;;;;;;;23.47;16.63;;;;;;;8.35;84.80;97837.78;6308074;28;20340;-52
2024/02/28 08:15:47;;;;;;;25.77;17.60;;;;;;;8.51;82.92;97847.81;6307158;28;20672;-52
2024/02/28 08:18:49;;;;;;;21.20;16.43;;;;;;;8.68;81.85;97842.69;6306087;28;20655;-49
2024/02/28 08:21:51;;;;;;;23.97;17.30;;;;;;;8.46;82.21;97813.16;6305719;28;20194;-53
2024/02/28 08:24:54;;;;;;;23.50;17.30;;;;;;;8.56;80.54;97825.91;6306264;28;20220;-50
2024/02/28 08:27:56;;;;;;;24.03;17.97;;;;;;;8.79;80.51;97849.91;6309461;28;20186;-50
2024/02/28 08:30:59;;;;;;;22.63;16.97;;;;;;;8.55;82.13;97856.94;6296254;28;20296;-52
2024/02/28 08:34:04;;;;;;;23.47;16.67;;;;;;;8.57;82.59;97862.88;6304329;28;20621;-49
2024/02/28 08:37:06;;;;;;;26.50;16.80;;;;;;;8.76;81.09;97858.31;6308004;28;20190;-50
2024/02/28 08:40:09;;;;;;;24.93;17.80;;;;;;;8.77;81.58;97859.94;6303470;28;20412;-51
2024/02/28 08:43:11;;;;;;;24.73;16.83;;;;;;;8.83;81.08;97866.19;6297533;28;20364;-48
2024/02/28 08:46:16;;;;;;;26.27;18.10;;;;;;;8.82;80.28;97853.94;6306068;28;20202;-52
2024/02/28 08:49:18;;;;;;;23.50;16.93;;;;;;;9.10;78.78;97866.63;6305545;28;20194;-47
2024/02/28 08:52:21;;;;;;;22.47;16.87;;;;;;;9.15;80.24;97870.19;6309057;28;20202;-49
2024/02/28 08:55:23;;;;;;;28.23;18.47;;;;;;;9.10;77.96;97866.63;6314154;28;20191;-49
2024/02/28 08:58:25;;;;;;;26.67;17.10;;;;;;;9.01;80.89;97877.59;6315134;28;20289;-50
2024/02/28 09:01:27;;;;;;;27.30;17.23;;;;;;;9.08;79.64;97874.00;6308129;28;20547;-51
2024/02/28 09:04:30;;;;;;;23.23;17.40;;;;;;;9.12;78.63;97875.19;6293519;28;20193;-49
2024/02/28 09:07:35;;;;;;;23.07;16.70;;;;;;;9.21;79.70;97876.44;6311159;28;20197;-50
2024/02/28 09:10:37;;;;;;;25.20;18.43;;;;;;;9.27;77.60;97878.22;6312520;28;20194;-48
2024/02/28 09:13:39;;;;;;;23.73;17.13;;;;;;;9.26;77.43;97880.06;6308626;28;20226;-52
2024/02/28 09:16:41;;;;;;;22.63;16.23;;;;;;;9.26;79.20;97877.41;6309259;28;20950;-52
2024/02/28 09:19:44;;;;;;;20.63;15.97;;;;;;;9.34;78.44;97880.78;6307127;28;20195;-53
2024/02/28 09:22:46;;;;;;;26.60;16.60;;;;;;;9.39;78.07;97889.66;6284241;28;20206;-52
2024/02/28 09:25:48;;;;;;;25.00;16.80;;;;;;;9.26;77.24;97880.06;6314665;28;20726;-52
2024/02/28 09:28:50;;;;;;;22.33;16.00;;;;;;;9.53;75.92;97900.91;6311835;28;20273;-51
2024/02/28 09:31:52;;;;;;;22.30;16.87;;;;;;;9.49;78.37;97899.75;6304730;28;20591;-51
2024/02/28 09:34:54;;;;;;;24.73;16.40;;;;;;;9.59;76.76;97913.28;6314373;28;20327;-52
2024/02/28 09:37:57;;;;;;;23.73;16.97;;;;;;;9.66;76.58;97899.91;6311443;28;20191;-49
2024/02/28 09:40:59;;;;;;;23.77;17.03;;;;;;;9.79;75.89;97902.31;6309347;28;20594;-50
2024/02/28 09:44:03;;;;;;;24.00;17.43;;;;;;;9.95;73.40;97876.84;6299059;28;20572;-53
2024/02/28 09:47:05;;;;;;;21.27;15.67;;;;;;;9.89;74.53;97896.41;6310691;28;20612;-52
2024/02/28 09:50:07;;;;;;;23.63;17.40;;;;;;;9.83;74.51;97909.59;6301058;28;20631;-52
2024/02/28 09:53:10;;;;;;;23.73;17.00;;;;;;;9.89;74.71;97909.72;6295072;28;20567;-50
2024/02/28 09:56:13;;;;;;;23.27;16.93;;;;;;;10.15;72.92;97919.06;6292628;28;20642;-52
2024/02/28 09:59:17;;;;;;;25.70;17.90;;;;;;;10.17;73.73;97922.34;6299362;28;20548;-51
2024/02/28 10:02:21;;;;;;;23.03;16.83;;;;;;;10.00;73.52;97924.88;6309280;28;20220;-50
2024/02/28 10:05:26;;;;;;;23.97;16.93;;;;;;;10.21;73.76;97929.63;6302922;28;20736;-51
2024/02/28 10:08:31;;;;;;;22.33;16.53;;;;;;;10.53;74.71;97935.38;6308738;28;20190;-51
2024/02/28 10:11:35;;;;;;;22.53;16.43;;;;;;;11.02;68.45;97943.00;6308486;28;20196;-50
2024/02/28 10:14:38;;;;;;;20.37;16.40;;;;;;;11.03;68.58;97944.63;6302754;28;20199;-51
2024/02/28 10:17:40;;;;;;;22.33;16.47;;;;;;;11.17;70.72;97945.94;6305758;28;20262;-53
2024/02/28 10:20:43;;;;;;;24.00;16.07;;;;;;;10.93;68.49;97931.09;6311666;28;20196;-50
2024/02/28 10:23:45;;;;;;;23.93;17.77;;;;;;;10.79;69.59;97954.56;6300010;28;20189;-52
2024/02/28 10:26:56;;;;;;;22.07;16.97;;;;;;;10.53;71.92;97954.03;6279679;28;20217;-52
2024/02/28 10:29:59;;;;;;;23.37;16.87;;;;;;;10.66;71.90;97952.97;6301697;28;20189;-48
2024/02/28 10:33:01;;;;;;;19.37;15.80;;;;;;;10.85;70.30;97949.09;6310194;28;20664;-52
2024/02/28 10:36:04;;;;;;;22.03;16.77;;;;;;;11.04;70.75;97955.06;6307375;28;20185;-50
2024/02/28 10:39:09;;;;;;;21.07;15.43;;;;;;;11.28;68.47;97954.94;6306696;28;20271;-47
2024/02/28 10:42:12;;;;;;;22.43;17.13;;;;;;;10.95;68.07;97939.69;6293756;28;20231;-53
2024/02/28 10:45:18;;;;;;;21.90;16.20;;;;;;;11.08;68.15;97944.72;6331201;28;20218;-49
2024/02/28 10:48:40;;;;;;;19.93;14.97;;;;;;;11.54;66.96;97943.69;6336347;28;20692;-49
2024/02/28 10:51:46;;;;;;;21.13;15.87;;;;;;;11.28;65.98;97946.94;6332036;28;20562;-52
2024/02/28 10:54:56;;;;;;;20.97;15.90;;;;;;;11.25;66.95;97945.56;6324212;28;20215;-50
2024/02/28 10:58:18;;;;;;;20.47;15.43;;;;;;;11.41;65.17;97927.16;6308060;28;20203;-52
2024/02/28 11:01:21;;;;;;;20.90;16.53;;;;;;;11.23;66.48;97934.34;6329901;28;20567;-52
2024/02/28 11:04:24;;;;;;;19.50;16.33;;;;;;;11.28;66.67;97938.94;6331659;28;20664;-50
2024/02/28 11:07:27;;;;;;;20.03;15.13;;;;;;;10.84;69.00;97942.16;6332571;28;20204;-50
2024/02/28 11:10:35;;;;;;;19.87;15.03;;;;;;;10.92;67.54;97946.28;6332356;28;20659;-52
2024/02/28 11:13:37;;;;;;;18.60;14.53;;;;;;;10.91;67.55;97944.66;6328331;28;20201;-51
2024/02/28 11:16:42;;;;;;;20.23;14.90;;;;;;;10.88;68.03;97942.47;6340994;28;20188;-48
2024/02/28 11:19:44;;;;;;;22.17;15.83;;;;;;;10.94;66.24;97922.06;6326683;28;20193;-48
2024/02/28 11:22:46;;;;;;;21.10;15.37;;;;;;;11.15;65.93;97936.59;6332151;28;20200;-49
2024/02/28 11:25:48;;;;;;;19.23;13.87;;;;;;;11.16;66.19;97924.88;6331010;28;20207;-50
2024/02/28 11:28:51;;;;;;;17.00;12.90;;;;;;;10.98;65.54;97939.19;6312197;28;20209;-50
2024/02/28 11:31:53;;;;;;;16.63;13.17;;;;;;;10.95;65.66;97939.69;6328656;28;20204;-49
2024/02/28 11:34:56;;;;;;;15.20;11.90;;;;;;;10.87;66.87;97929.38;6330214;28;20202;-48
2024/02/28 11:37:58;;;;;;;17.10;12.87;;;;;;;10.86;66.42;97920.59;6325447;28;20648;-48
2024/02/28 11:41:00;;;;;;;16.43;12.87;;;;;;;10.71;67.07;97934.41;6327815;28;20234;-52
2024/02/28 11:44:02;;;;;;;17.03;12.90;;;;;;;10.50;69.37;97913.75;6322007;28;20665;-51
2024/02/28 11:47:04;;;;;;;17.80;13.57;;;;;;;10.87;66.45;97927.53;6325816;28;20857;-49
2024/02/28 11:50:07;;;;;;;16.13;11.97;;;;;;;10.95;66.82;97932.50;6331179;28;20306;-47
2024/02/28 11:53:11;;;;;;;17.33;12.47;;;;;;;10.92;65.71;97926.81;6329930;28;20204;-50
2024/02/28 11:56:17;;;;;;;18.33;13.10;;;;;;;10.77;68.08;97919.34;6328987;28;20192;-51
2024/02/28 11:59:19;;;;;;;16.20;12.73;;;;;;;11.03;66.08;97918.78;6330067;28;20204;-50
2024/02/28 12:02:25;;;;;;;18.60;12.60;;;;;;;10.94;66.14;97919.41;6329937;28;20196;-50
2024/02/28 12:05:28;;;;;;;18.60;12.70;;;;;;;11.09;65.54;97925.03;6332489;28;20757;-49
2024/02/28 12:08:30;;;;;;;17.63;13.77;;;;;;;10.95;66.56;97931.69;6332607;28;20541;-51
2024/02/28 12:11:32;;;;;;;16.57;12.60;;;;;;;10.91;65.92;97928.69;6331891;28;20663;-51
2024/02/28 12:14:42;;;;;;;14.83;12.07;;;;;;;11.16;66.86;97927.53;6335877;28;20730;-50
2024/02/28 12:17:45;;;;;;;18.90;12.60;;;;;;;10.95;65.96;97889.03;6333500;28;20625;-49
2024/02/28 12:20:50;;;;;;;15.63;11.80;;;;;;;11.29;64.14;97929.91;6338663;28;20554;-50
2024/02/28 12:23:52;;;;;;;15.97;12.23;;;;;;;11.08;64.79;97929.56;6318841;28;20509;-51
2024/02/28 12:26:54;;;;;;;18.67;13.47;;;;;;;11.05;64.79;97918.53;6315539;28;20219;-50
2024/02/28 12:29:56;;;;;;;18.77;13.97;;;;;;;10.85;65.81;97916.31;6336206;28;20196;-51
2024/02/28 12:33:00;;;;;;;17.50;12.57;;;;;;;11.00;65.92;97921.94;6334722;28;20189;-53
2024/02/28 12:36:03;;;;;;;18.77;13.57;;;;;;;11.18;65.50;97910.25;6341429;28;20613;-51
2024/02/28 12:39:06;;;;;;;18.80;13.67;;;;;;;11.24;64.93;97909.28;6340961;28;20675;-48
2024/02/28 12:42:08;;;;;;;17.53;13.13;;;;;;;10.83;66.71;97894.41;6328753;28;20673;-52
2024/02/28 12:45:10;;;;;;;17.47;13.63;;;;;;;10.84;66.48;97907.50;6337867;28;20203;-51
2024/02/28 12:48:12;;;;;;;22.30;14.37;;;;;;;11.04;64.93;97920.41;6337245;28;20693;-52
2024/02/28 12:51:35;;;;;;;18.50;14.17;;;;;;;10.82;66.24;97914.91;6332535;28;20200;-48
2024/02/28 12:54:38;;;;;;;18.33;14.57;;;;;;;10.69;66.97;97923.19;6335781;28;20221;-52
2024/02/28 12:57:40;;;;;;;16.97;13.10;;;;;;;10.87;67.62;97922.19;6333084;28;20311;-49
2024/02/28 13:00:42;;;;;;;18.43;13.97;;;;;;;10.81;68.19;97910.63;6339531;28;20266;-50
2024/02/28 13:03:44;;;;;;;18.40;13.23;;;;;;;10.99;67.15;97916.84;6341681;28;20228;-51
2024/02/28 13:06:46;;;;;;;19.17;13.53;;;;;;;10.93;66.56;97913.25;6343282;28;20214;-49
2024/02/28 13:09:49;;;;;;;17.23;14.30;;;;;;;10.79;68.47;97918.06;6328595;28;20191;-48
2024/02/28 13:12:51;;;;;;;19.77;14.47;;;;;;;10.77;66.33;97898.03;6332609;28;20201;-49
2024/02/28 13:15:53;;;;;;;19.10;14.87;;;;;;;10.96;66.68;97926.09;6333794;28;20698;-52
2024/02/28 13:18:56;;;;;;;19.23;14.87;;;;;;;10.65;67.47;97923.91;6334244;28;20199;-52
2024/02/28 13:21:58;;;;;;;20.63;14.63;;;;;;;10.91;66.83;97923.34;6332944;28;20569;-52
2024/02/28 13:25:00;;;;;;;21.73;14.63;;;;;;;10.84;66.46;97920.03;6333129;28;20753;-50
2024/02/28 13:28:03;;;;;;;20.40;14.23;;;;;;;10.76;66.39;97915.06;6337866;28;20210;-50
2024/02/28 13:31:05;;;;;;;18.33;14.50;;;;;;;10.77;68.71;97916.69;6324076;28;20199;-49
2024/02/28 13:34:07;;;;;;;19.00;15.03;;;;;;;10.82;66.45;97920.25;6339807;28;20204;-50
2024/02/28 13:37:10;;;;;;;21.33;15.83;;;;;;;10.75;67.62;97926.78;6339335;28;20732;-51
2024/02/28 13:40:12;;;;;;;20.90;15.17;;;;;;;10.70;67.44;97905.34;6332679;28;20692;-48
2024/02/28 13:43:14;;;;;;;20.73;15.07;;;;;;;10.64;67.08;97923.09;6325415;28;20976;-52
2024/02/28 13:46:19;;;;;;;21.77;15.83;;;;;;;10.59;67.27;97918.47;6327779;28;20704;-50
2024/02/28 13:49:21;;;;;;;19.13;14.30;;;;;;;10.79;68.00;97927.94;6332386;28;20271;-51
2024/02/28 13:52:23;;;;;;;20.43;14.80;;;;;;;10.59;68.32;97925.66;6330925;28;20203;-50
2024/02/28 13:55:25;;;;;;;20.17;13.93;;;;;;;10.62;66.89;97924.38;6333634;28;20200;-50
2024/02/28 13:58:28;;;;;;;22.40;14.40;;;;;;;10.42;66.97;97912.25;6319783;28;20832;-49
2024/02/28 14:01:40;;;;;;;18.70;14.97;;;;;;;10.59;67.12;97931.81;6332812;28;20473;-48
2024/02/28 14:04:43;;;;;;;21.57;15.73;;;;;;;10.49;68.87;97933.41;6325169;28;20281;-47
2024/02/28 14:07:45;;;;;;;22.07;15.77;;;;;;;10.56;67.59;97932.25;6322458;28;20572;-52
2024/02/28 14:10:47;;;;;;;22.57;15.87;;;;;;;10.48;68.04;97927.28;6332529;28;20200;-48